sensor_id;sensor_type;location;lat;lon;timestamp;P1;durP1;ratioP1;P2;durP2;ratioP2
23676;SDS011;31493;49.058;12.190;2022-12-07T00:01:08;17.42;;;11.52;;
23676;SDS011;31493;49.058;12.190;2022-12-07T00:03:37;14.43;;;10.40;;
23676;SDS011;31493;49.058;12.190;2022-12-07T00:06:06;14.52;;;10.57;;
23676;SDS011;31493;49.058;12.190;2022-12-07T00:08:35;17.55;;;10.07;;
23676;SDS011;31493;49.058;12.190;2022-12-07T00:11:02;14.82;;;10.65;;
23676;SDS011;31493;49.058;12.190;2022-12-07T00:13:30;16.02;;;10.85;;
23676;SDS011;31493;49.058;12.190;2022-12-07T00:15:59;15.75;;;11.10;;
23676;SDS011;31493;49.058;12.190;2022-12-07T00:18:27;15.40;;;10.73;;
23676;SDS011;31493;49.058;12.190;2022-12-07T00:20:58;16.17;;;10.68;;
23676;SDS011;31493;49.058;12.190;2022-12-07T00:23:26;15.60;;;10.77;;
23676;SDS011;31493;49.058;12.190;2022-12-07T00:25:54;14.95;;;10.38;;
23676;SDS011;31493;49.058;12.190;2022-12-07T00:28:21;15.98;;;11.15;;
23676;SDS011;31493;49.058;12.190;2022-12-07T00:30:48;15.50;;;9.82;;
23676;SDS011;31493;49.058;12.190;2022-12-07T00:33:15;14.88;;;10.70;;
23676;SDS011;31493;49.058;12.190;2022-12-07T00:35:42;15.15;;;10.55;;
23676;SDS011;31493;49.058;12.190;2022-12-07T00:38:09;14.77;;;10.25;;
23676;SDS011;31493;49.058;12.190;2022-12-07T00:40:36;15.05;;;10.82;;
23676;SDS011;31493;49.058;12.190;2022-12-07T00:43:04;13.73;;;9.85;;
23676;SDS011;31493;49.058;12.190;2022-12-07T00:45:31;13.80;;;9.68;;
23676;SDS011;31493;49.058;12.190;2022-12-07T00:47:58;12.88;;;9.65;;
23676;SDS011;31493;49.058;12.190;2022-12-07T00:50:25;12.95;;;9.15;;
23676;SDS011;31493;49.058;12.190;2022-12-07T00:52:52;13.48;;;9.73;;
23676;SDS011;31493;49.058;12.190;2022-12-07T00:55:19;13.00;;;8.93;;
23676;SDS011;31493;49.058;12.190;2022-12-07T00:57:46;12.82;;;8.98;;
23676;SDS011;31493;49.058;12.190;2022-12-07T01:00:15;12.40;;;8.43;;
23676;SDS011;31493;49.058;12.190;2022-12-07T01:02:42;12.57;;;8.93;;
23676;SDS011;31493;49.058;12.190;2022-12-07T01:05:09;13.85;;;8.20;;
23676;SDS011;31493;49.058;12.190;2022-12-07T01:07:36;12.95;;;8.35;;
23676;SDS011;31493;49.058;12.190;2022-12-07T01:10:04;11.60;;;8.18;;
23676;SDS011;31493;49.058;12.190;2022-12-07T01:12:31;10.43;;;8.32;;
23676;SDS011;31493;49.058;12.190;2022-12-07T01:14:58;12.00;;;9.00;;
23676;SDS011;31493;49.058;12.190;2022-12-07T01:17:27;11.68;;;9.07;;
23676;SDS011;31493;49.058;12.190;2022-12-07T01:19:55;12.52;;;9.35;;
23676;SDS011;31493;49.058;12.190;2022-12-07T01:22:22;11.88;;;9.05;;
23676;SDS011;31493;49.058;12.190;2022-12-07T01:24:49;13.00;;;9.68;;
23676;SDS011;31493;49.058;12.190;2022-12-07T01:27:16;13.43;;;10.27;;
23676;SDS011;31493;49.058;12.190;2022-12-07T01:29:43;12.35;;;9.48;;
23676;SDS011;31493;49.058;12.190;2022-12-07T01:32:10;12.48;;;8.50;;
23676;SDS011;31493;49.058;12.190;2022-12-07T01:34:39;11.77;;;9.02;;
23676;SDS011;31493;49.058;12.190;2022-12-07T01:37:06;11.35;;;9.25;;
23676;SDS011;31493;49.058;12.190;2022-12-07T01:39:33;13.60;;;10.07;;
23676;SDS011;31493;49.058;12.190;2022-12-07T01:42:00;12.85;;;9.80;;
23676;SDS011;31493;49.058;12.190;2022-12-07T01:44:27;11.65;;;9.43;;
23676;SDS011;31493;49.058;12.190;2022-12-07T01:46:58;12.38;;;9.27;;
23676;SDS011;31493;49.058;12.190;2022-12-07T01:49:27;12.60;;;10.00;;
23676;SDS011;31493;49.058;12.190;2022-12-07T01:52:01;12.80;;;10.15;;
23676;SDS011;31493;49.058;12.190;2022-12-07T01:54:35;13.18;;;10.02;;
23676;SDS011;31493;49.058;12.190;2022-12-07T01:57:03;13.23;;;10.18;;
23676;SDS011;31493;49.058;12.190;2022-12-07T01:59:33;13.00;;;9.73;;
23676;SDS011;31493;49.058;12.190;2022-12-07T02:02:00;13.88;;;10.60;;
23676;SDS011;31493;49.058;12.190;2022-12-07T02:04:30;12.48;;;10.05;;
23676;SDS011;31493;49.058;12.190;2022-12-07T02:06:58;10.93;;;8.75;;
23676;SDS011;31493;49.058;12.190;2022-12-07T02:09:26;12.88;;;9.88;;
23676;SDS011;31493;49.058;12.190;2022-12-07T02:11:53;13.50;;;10.38;;
23676;SDS011;31493;49.058;12.190;2022-12-07T02:14:21;12.13;;;9.77;;
23676;SDS011;31493;49.058;12.190;2022-12-07T02:16:51;13.00;;;9.70;;
23676;SDS011;31493;49.058;12.190;2022-12-07T02:19:35;13.57;;;9.75;;
23676;SDS011;31493;49.058;12.190;2022-12-07T02:22:24;11.95;;;9.52;;
23676;SDS011;31493;49.058;12.190;2022-12-07T02:25:09;12.63;;;9.60;;
23676;SDS011;31493;49.058;12.190;2022-12-07T02:27:46;13.75;;;9.85;;
23676;SDS011;31493;49.058;12.190;2022-12-07T02:30:16;14.38;;;10.35;;
23676;SDS011;31493;49.058;12.190;2022-12-07T02:32:51;11.50;;;9.20;;
23676;SDS011;31493;49.058;12.190;2022-12-07T02:35:24;10.02;;;7.78;;
23676;SDS011;31493;49.058;12.190;2022-12-07T02:37:58;12.50;;;9.73;;
23676;SDS011;31493;49.058;12.190;2022-12-07T02:40:31;13.15;;;10.55;;
23676;SDS011;31493;49.058;12.190;2022-12-07T02:43:03;12.50;;;10.32;;
23676;SDS011;31493;49.058;12.190;2022-12-07T02:45:37;12.45;;;9.68;;
23676;SDS011;31493;49.058;12.190;2022-12-07T02:48:07;12.40;;;9.40;;
23676;SDS011;31493;49.058;12.190;2022-12-07T02:50:36;12.05;;;9.38;;
23676;SDS011;31493;49.058;12.190;2022-12-07T02:53:04;13.40;;;10.20;;
23676;SDS011;31493;49.058;12.190;2022-12-07T02:55:34;13.23;;;10.68;;
23676;SDS011;31493;49.058;12.190;2022-12-07T02:58:11;13.00;;;10.05;;
23676;SDS011;31493;49.058;12.190;2022-12-07T03:00:54;13.07;;;10.13;;
23676;SDS011;31493;49.058;12.190;2022-12-07T03:03:31;12.73;;;9.63;;
23676;SDS011;31493;49.058;12.190;2022-12-07T03:06:06;12.40;;;9.82;;
23676;SDS011;31493;49.058;12.190;2022-12-07T03:08:44;13.98;;;9.63;;
23676;SDS011;31493;49.058;12.190;2022-12-07T03:11:21;12.05;;;10.13;;
23676;SDS011;31493;49.058;12.190;2022-12-07T03:13:54;13.02;;;10.50;;
23676;SDS011;31493;49.058;12.190;2022-12-07T03:16:28;13.10;;;10.27;;
23676;SDS011;31493;49.058;12.190;2022-12-07T03:18:59;12.95;;;10.30;;
23676;SDS011;31493;49.058;12.190;2022-12-07T03:21:34;14.88;;;11.23;;
23676;SDS011;31493;49.058;12.190;2022-12-07T03:24:07;13.00;;;10.43;;
23676;SDS011;31493;49.058;12.190;2022-12-07T03:26:38;17.13;;;11.88;;
23676;SDS011;31493;49.058;12.190;2022-12-07T03:29:12;13.75;;;10.93;;
23676;SDS011;31493;49.058;12.190;2022-12-07T03:31:46;16.15;;;11.98;;
23676;SDS011;31493;49.058;12.190;2022-12-07T03:34:18;15.50;;;11.80;;
23676;SDS011;31493;49.058;12.190;2022-12-07T03:36:53;14.50;;;10.85;;
23676;SDS011;31493;49.058;12.190;2022-12-07T03:39:24;14.90;;;11.43;;
23676;SDS011;31493;49.058;12.190;2022-12-07T03:41:55;15.13;;;10.82;;
23676;SDS011;31493;49.058;12.190;2022-12-07T03:44:26;13.73;;;11.18;;
23676;SDS011;31493;49.058;12.190;2022-12-07T03:46:57;13.90;;;10.70;;
23676;SDS011;31493;49.058;12.190;2022-12-07T03:49:30;14.63;;;11.57;;
23676;SDS011;31493;49.058;12.190;2022-12-07T03:52:05;15.73;;;10.90;;
23676;SDS011;31493;49.058;12.190;2022-12-07T03:54:39;14.73;;;10.95;;
23676;SDS011;31493;49.058;12.190;2022-12-07T03:57:11;17.60;;;11.05;;
23676;SDS011;31493;49.058;12.190;2022-12-07T03:59:39;14.17;;;10.67;;
23676;SDS011;31493;49.058;12.190;2022-12-07T04:02:11;16.60;;;11.00;;
23676;SDS011;31493;49.058;12.190;2022-12-07T04:04:39;13.32;;;10.32;;
23676;SDS011;31493;49.058;12.190;2022-12-07T04:07:08;16.90;;;12.00;;
23676;SDS011;31493;49.058;12.190;2022-12-07T04:09:36;13.57;;;10.50;;
23676;SDS011;31493;49.058;12.190;2022-12-07T04:12:03;14.77;;;11.48;;
23676;SDS011;31493;49.058;12.190;2022-12-07T04:14:30;12.90;;;10.13;;
23676;SDS011;31493;49.058;12.190;2022-12-07T04:16:58;15.02;;;11.18;;
23676;SDS011;31493;49.058;12.190;2022-12-07T04:19:27;15.75;;;10.98;;
23676;SDS011;31493;49.058;12.190;2022-12-07T04:21:55;14.07;;;10.85;;
23676;SDS011;31493;49.058;12.190;2022-12-07T04:24:23;14.55;;;10.82;;
23676;SDS011;31493;49.058;12.190;2022-12-07T04:26:51;16.48;;;11.60;;
23676;SDS011;31493;49.058;12.190;2022-12-07T04:29:18;14.93;;;11.20;;
23676;SDS011;31493;49.058;12.190;2022-12-07T04:31:45;15.10;;;11.05;;
23676;SDS011;31493;49.058;12.190;2022-12-07T04:34:13;13.68;;;10.43;;
23676;SDS011;31493;49.058;12.190;2022-12-07T04:36:42;15.90;;;10.90;;
23676;SDS011;31493;49.058;12.190;2022-12-07T04:39:14;14.63;;;10.68;;
23676;SDS011;31493;49.058;12.190;2022-12-07T04:41:45;14.23;;;11.18;;
23676;SDS011;31493;49.058;12.190;2022-12-07T04:44:12;14.75;;;10.50;;
23676;SDS011;31493;49.058;12.190;2022-12-07T04:46:41;17.55;;;10.90;;
23676;SDS011;31493;49.058;12.190;2022-12-07T04:49:08;13.73;;;10.10;;
23676;SDS011;31493;49.058;12.190;2022-12-07T04:51:35;15.88;;;11.00;;
23676;SDS011;31493;49.058;12.190;2022-12-07T04:54:04;16.83;;;11.52;;
23676;SDS011;31493;49.058;12.190;2022-12-07T04:56:31;14.40;;;10.93;;
23676;SDS011;31493;49.058;12.190;2022-12-07T04:58:58;13.98;;;10.52;;
23676;SDS011;31493;49.058;12.190;2022-12-07T05:01:25;16.73;;;9.80;;
23676;SDS011;31493;49.058;12.190;2022-12-07T05:03:52;14.68;;;10.93;;
23676;SDS011;31493;49.058;12.190;2022-12-07T05:06:19;15.35;;;11.65;;
23676;SDS011;31493;49.058;12.190;2022-12-07T05:08:46;15.50;;;11.38;;
23676;SDS011;31493;49.058;12.190;2022-12-07T05:11:15;16.15;;;12.40;;
23676;SDS011;31493;49.058;12.190;2022-12-07T05:13:56;17.48;;;12.95;;
23676;SDS011;31493;49.058;12.190;2022-12-07T05:16:23;15.23;;;11.85;;
23676;SDS011;31493;49.058;12.190;2022-12-07T05:18:50;15.32;;;11.48;;
23676;SDS011;31493;49.058;12.190;2022-12-07T05:21:17;17.27;;;12.35;;
23676;SDS011;31493;49.058;12.190;2022-12-07T05:23:45;16.17;;;12.07;;
23676;SDS011;31493;49.058;12.190;2022-12-07T05:26:12;18.58;;;12.80;;
23676;SDS011;31493;49.058;12.190;2022-12-07T05:28:40;16.05;;;11.82;;
23676;SDS011;31493;49.058;12.190;2022-12-07T05:31:07;17.25;;;10.82;;
23676;SDS011;31493;49.058;12.190;2022-12-07T05:33:34;15.20;;;10.43;;
23676;SDS011;31493;49.058;12.190;2022-12-07T05:36:02;15.68;;;11.35;;
23676;SDS011;31493;49.058;12.190;2022-12-07T05:40:59;16.60;;;11.65;;
23676;SDS011;31493;49.058;12.190;2022-12-07T05:43:28;16.30;;;11.38;;
23676;SDS011;31493;49.058;12.190;2022-12-07T05:45:56;16.98;;;12.00;;
23676;SDS011;31493;49.058;12.190;2022-12-07T05:48:23;15.68;;;11.48;;
23676;SDS011;31493;49.058;12.190;2022-12-07T05:50:51;18.00;;;12.43;;
23676;SDS011;31493;49.058;12.190;2022-12-07T05:53:19;18.58;;;12.57;;
23676;SDS011;31493;49.058;12.190;2022-12-07T05:55:46;19.33;;;13.43;;
23676;SDS011;31493;49.058;12.190;2022-12-07T05:58:13;20.83;;;13.57;;
23676;SDS011;31493;49.058;12.190;2022-12-07T06:00:59;21.38;;;14.23;;
23676;SDS011;31493;49.058;12.190;2022-12-07T06:03:26;21.67;;;14.10;;
23676;SDS011;31493;49.058;12.190;2022-12-07T06:05:53;20.15;;;14.27;;
23676;SDS011;31493;49.058;12.190;2022-12-07T06:08:20;22.85;;;15.95;;
23676;SDS011;31493;49.058;12.190;2022-12-07T06:10:47;24.15;;;16.25;;
23676;SDS011;31493;49.058;12.190;2022-12-07T06:13:36;25.17;;;16.48;;
23676;SDS011;31493;49.058;12.190;2022-12-07T06:16:03;23.42;;;15.82;;
23676;SDS011;31493;49.058;12.190;2022-12-07T06:18:31;23.05;;;16.13;;
23676;SDS011;31493;49.058;12.190;2022-12-07T06:20:58;23.77;;;16.02;;
23676;SDS011;31493;49.058;12.190;2022-12-07T06:23:25;22.88;;;15.48;;
23676;SDS011;31493;49.058;12.190;2022-12-07T06:25:52;21.58;;;13.80;;
23676;SDS011;31493;49.058;12.190;2022-12-07T06:28:19;23.02;;;15.73;;
23676;SDS011;31493;49.058;12.190;2022-12-07T06:30:46;26.50;;;16.48;;
23676;SDS011;31493;49.058;12.190;2022-12-07T06:33:14;23.15;;;16.30;;
23676;SDS011;31493;49.058;12.190;2022-12-07T06:35:41;26.95;;;17.00;;
23676;SDS011;31493;49.058;12.190;2022-12-07T06:38:08;19.80;;;14.20;;
23676;SDS011;31493;49.058;12.190;2022-12-07T06:40:35;22.77;;;15.57;;
23676;SDS011;31493;49.058;12.190;2022-12-07T06:43:02;23.60;;;16.08;;
23676;SDS011;31493;49.058;12.190;2022-12-07T06:45:29;25.92;;;16.98;;
23676;SDS011;31493;49.058;12.190;2022-12-07T06:47:56;24.52;;;16.23;;
23676;SDS011;31493;49.058;12.190;2022-12-07T06:50:24;25.83;;;17.17;;
23676;SDS011;31493;49.058;12.190;2022-12-07T06:52:52;23.80;;;17.02;;
23676;SDS011;31493;49.058;12.190;2022-12-07T06:55:19;23.98;;;16.13;;
23676;SDS011;31493;49.058;12.190;2022-12-07T06:57:46;24.73;;;16.27;;
23676;SDS011;31493;49.058;12.190;2022-12-07T07:00:13;24.08;;;16.70;;
23676;SDS011;31493;49.058;12.190;2022-12-07T07:02:41;24.30;;;16.95;;
23676;SDS011;31493;49.058;12.190;2022-12-07T07:05:08;24.90;;;16.95;;
23676;SDS011;31493;49.058;12.190;2022-12-07T07:07:37;24.63;;;17.23;;
23676;SDS011;31493;49.058;12.190;2022-12-07T07:10:04;27.35;;;17.23;;
23676;SDS011;31493;49.058;12.190;2022-12-07T07:12:32;30.95;;;17.45;;
23676;SDS011;31493;49.058;12.190;2022-12-07T07:14:59;23.90;;;16.30;;
23676;SDS011;31493;49.058;12.190;2022-12-07T07:17:26;26.45;;;16.70;;
23676;SDS011;31493;49.058;12.190;2022-12-07T07:19:53;21.55;;;14.73;;
23676;SDS011;31493;49.058;12.190;2022-12-07T07:22:20;21.38;;;15.13;;
23676;SDS011;31493;49.058;12.190;2022-12-07T07:24:48;24.02;;;16.25;;
23676;SDS011;31493;49.058;12.190;2022-12-07T07:27:15;24.30;;;16.08;;
23676;SDS011;31493;49.058;12.190;2022-12-07T07:29:42;24.70;;;15.45;;
23676;SDS011;31493;49.058;12.190;2022-12-07T07:32:09;23.98;;;15.80;;
23676;SDS011;31493;49.058;12.190;2022-12-07T07:34:37;27.97;;;16.43;;
23676;SDS011;31493;49.058;12.190;2022-12-07T07:37:04;24.67;;;16.42;;
23676;SDS011;31493;49.058;12.190;2022-12-07T07:39:31;30.17;;;17.10;;
23676;SDS011;31493;49.058;12.190;2022-12-07T07:42:00;23.88;;;15.73;;
23676;SDS011;31493;49.058;12.190;2022-12-07T07:44:27;25.70;;;16.38;;
23676;SDS011;31493;49.058;12.190;2022-12-07T07:46:54;25.75;;;15.40;;
23676;SDS011;31493;49.058;12.190;2022-12-07T07:49:21;24.52;;;15.77;;
23676;SDS011;31493;49.058;12.190;2022-12-07T07:51:48;25.70;;;15.68;;
23676;SDS011;31493;49.058;12.190;2022-12-07T07:54:15;22.67;;;14.85;;
23676;SDS011;31493;49.058;12.190;2022-12-07T07:56:42;26.10;;;16.17;;
23676;SDS011;31493;49.058;12.190;2022-12-07T07:59:10;25.10;;;16.23;;
23676;SDS011;31493;49.058;12.190;2022-12-07T08:01:37;27.05;;;17.42;;
23676;SDS011;31493;49.058;12.190;2022-12-07T08:04:04;27.00;;;16.38;;
23676;SDS011;31493;49.058;12.190;2022-12-07T08:06:31;23.30;;;14.82;;
23676;SDS011;31493;49.058;12.190;2022-12-07T08:08:58;23.35;;;16.00;;
23676;SDS011;31493;49.058;12.190;2022-12-07T08:11:25;26.85;;;15.10;;
23676;SDS011;31493;49.058;12.190;2022-12-07T08:13:52;22.48;;;15.43;;
23676;SDS011;31493;49.058;12.190;2022-12-07T08:16:20;20.88;;;14.50;;
23676;SDS011;31493;49.058;12.190;2022-12-07T08:18:47;22.95;;;15.65;;
23676;SDS011;31493;49.058;12.190;2022-12-07T08:21:15;25.77;;;14.32;;
23676;SDS011;31493;49.058;12.190;2022-12-07T08:23:42;27.80;;;14.90;;
23676;SDS011;31493;49.058;12.190;2022-12-07T08:26:10;23.33;;;15.43;;
23676;SDS011;31493;49.058;12.190;2022-12-07T08:28:39;24.17;;;15.00;;
23676;SDS011;31493;49.058;12.190;2022-12-07T08:31:07;24.63;;;14.90;;
23676;SDS011;31493;49.058;12.190;2022-12-07T08:33:39;23.40;;;15.20;;
23676;SDS011;31493;49.058;12.190;2022-12-07T08:36:07;25.80;;;14.98;;
23676;SDS011;31493;49.058;12.190;2022-12-07T08:38:36;22.33;;;15.43;;
23676;SDS011;31493;49.058;12.190;2022-12-07T08:41:04;21.92;;;14.35;;
23676;SDS011;31493;49.058;12.190;2022-12-07T08:43:32;22.20;;;15.40;;
23676;SDS011;31493;49.058;12.190;2022-12-07T08:46:03;24.92;;;16.38;;
23676;SDS011;31493;49.058;12.190;2022-12-07T08:48:33;22.70;;;14.43;;
23676;SDS011;31493;49.058;12.190;2022-12-07T08:51:04;21.98;;;14.65;;
23676;SDS011;31493;49.058;12.190;2022-12-07T08:53:32;23.23;;;14.52;;
23676;SDS011;31493;49.058;12.190;2022-12-07T08:56:01;22.20;;;14.80;;
23676;SDS011;31493;49.058;12.190;2022-12-07T08:58:28;21.80;;;14.75;;
23676;SDS011;31493;49.058;12.190;2022-12-07T09:00:55;24.02;;;15.02;;
23676;SDS011;31493;49.058;12.190;2022-12-07T09:03:22;22.23;;;14.55;;
23676;SDS011;31493;49.058;12.190;2022-12-07T09:05:49;21.90;;;14.23;;
23676;SDS011;31493;49.058;12.190;2022-12-07T09:08:18;24.83;;;13.38;;
23676;SDS011;31493;49.058;12.190;2022-12-07T09:10:45;23.02;;;14.07;;
23676;SDS011;31493;49.058;12.190;2022-12-07T09:13:13;19.63;;;14.02;;
23676;SDS011;31493;49.058;12.190;2022-12-07T09:15:40;20.92;;;13.82;;
23676;SDS011;31493;49.058;12.190;2022-12-07T09:18:07;21.98;;;13.98;;
23676;SDS011;31493;49.058;12.190;2022-12-07T09:20:34;20.33;;;14.05;;
23676;SDS011;31493;49.058;12.190;2022-12-07T09:23:01;20.40;;;13.15;;
23676;SDS011;31493;49.058;12.190;2022-12-07T09:25:30;21.65;;;13.95;;
23676;SDS011;31493;49.058;12.190;2022-12-07T09:27:57;21.33;;;13.75;;
23676;SDS011;31493;49.058;12.190;2022-12-07T09:30:24;19.58;;;13.05;;
23676;SDS011;31493;49.058;12.190;2022-12-07T09:32:52;21.75;;;13.60;;
23676;SDS011;31493;49.058;12.190;2022-12-07T09:35:20;19.70;;;12.38;;
23676;SDS011;31493;49.058;12.190;2022-12-07T09:37:47;22.15;;;14.25;;
23676;SDS011;31493;49.058;12.190;2022-12-07T09:40:14;21.08;;;13.65;;
23676;SDS011;31493;49.058;12.190;2022-12-07T09:42:45;18.50;;;12.80;;
23676;SDS011;31493;49.058;12.190;2022-12-07T09:45:15;23.70;;;14.00;;
23676;SDS011;31493;49.058;12.190;2022-12-07T09:47:45;20.92;;;13.27;;
23676;SDS011;31493;49.058;12.190;2022-12-07T09:50:13;20.27;;;12.48;;
23676;SDS011;31493;49.058;12.190;2022-12-07T09:52:41;22.45;;;13.18;;
23676;SDS011;31493;49.058;12.190;2022-12-07T09:55:11;20.42;;;13.80;;
23676;SDS011;31493;49.058;12.190;2022-12-07T09:57:40;19.23;;;13.18;;
23676;SDS011;31493;49.058;12.190;2022-12-07T10:00:14;22.38;;;12.18;;
23676;SDS011;31493;49.058;12.190;2022-12-07T10:02:43;23.17;;;13.25;;
23676;SDS011;31493;49.058;12.190;2022-12-07T10:07:40;18.10;;;11.70;;
23676;SDS011;31493;49.058;12.190;2022-12-07T10:10:12;23.88;;;13.20;;
23676;SDS011;31493;49.058;12.190;2022-12-07T10:12:55;21.88;;;12.02;;
23676;SDS011;31493;49.058;12.190;2022-12-07T10:15:24;18.70;;;11.70;;
23676;SDS011;31493;49.058;12.190;2022-12-07T10:18:16;18.88;;;12.38;;
23676;SDS011;31493;49.058;12.190;2022-12-07T10:20:46;20.25;;;12.98;;
23676;SDS011;31493;49.058;12.190;2022-12-07T10:23:14;16.15;;;10.27;;
23676;SDS011;31493;49.058;12.190;2022-12-07T10:25:43;19.08;;;12.55;;
23676;SDS011;31493;49.058;12.190;2022-12-07T10:28:14;20.70;;;12.37;;
23676;SDS011;31493;49.058;12.190;2022-12-07T10:30:47;19.67;;;11.18;;
23676;SDS011;31493;49.058;12.190;2022-12-07T10:33:29;19.30;;;12.23;;
23676;SDS011;31493;49.058;12.190;2022-12-07T10:35:58;17.33;;;10.90;;
23676;SDS011;31493;49.058;12.190;2022-12-07T10:38:27;19.52;;;11.43;;
23676;SDS011;31493;49.058;12.190;2022-12-07T10:41:02;15.02;;;9.88;;
23676;SDS011;31493;49.058;12.190;2022-12-07T10:43:30;18.50;;;10.68;;
23676;SDS011;31493;49.058;12.190;2022-12-07T10:49:32;18.10;;;10.75;;
23676;SDS011;31493;49.058;12.190;2022-12-07T10:52:17;12.23;;;8.35;;
23676;SDS011;31493;49.058;12.190;2022-12-07T10:54:59;15.23;;;10.32;;
23676;SDS011;31493;49.058;12.190;2022-12-07T10:57:38;16.33;;;10.70;;
23676;SDS011;31493;49.058;12.190;2022-12-07T11:00:16;16.75;;;10.43;;
23676;SDS011;31493;49.058;12.190;2022-12-07T11:02:50;20.02;;;12.25;;
23676;SDS011;31493;49.058;12.190;2022-12-07T11:05:32;18.90;;;11.90;;
23676;SDS011;31493;49.058;12.190;2022-12-07T11:08:13;17.70;;;11.95;;
23676;SDS011;31493;49.058;12.190;2022-12-07T11:10:49;17.48;;;11.43;;
23676;SDS011;31493;49.058;12.190;2022-12-07T11:13:22;16.13;;;11.02;;
23676;SDS011;31493;49.058;12.190;2022-12-07T11:16:03;16.17;;;10.68;;
23676;SDS011;31493;49.058;12.190;2022-12-07T11:18:43;20.75;;;11.25;;
23676;SDS011;31493;49.058;12.190;2022-12-07T11:21:20;14.73;;;9.43;;
23676;SDS011;31493;49.058;12.190;2022-12-07T11:23:55;15.77;;;10.15;;
23676;SDS011;31493;49.058;12.190;2022-12-07T11:26:40;15.25;;;9.70;;
23676;SDS011;31493;49.058;12.190;2022-12-07T11:29:23;15.27;;;10.27;;
23676;SDS011;31493;49.058;12.190;2022-12-07T11:32:03;15.27;;;9.98;;
23676;SDS011;31493;49.058;12.190;2022-12-07T11:34:42;15.05;;;10.38;;
23676;SDS011;31493;49.058;12.190;2022-12-07T11:37:21;18.02;;;10.15;;
23676;SDS011;31493;49.058;12.190;2022-12-07T11:39:54;13.60;;;8.60;;
23676;SDS011;31493;49.058;12.190;2022-12-07T11:42:24;13.57;;;8.73;;
23676;SDS011;31493;49.058;12.190;2022-12-07T11:44:53;15.23;;;8.82;;
23676;SDS011;31493;49.058;12.190;2022-12-07T11:47:28;12.88;;;8.68;;
23676;SDS011;31493;49.058;12.190;2022-12-07T11:50:03;12.65;;;8.07;;
23676;SDS011;31493;49.058;12.190;2022-12-07T11:52:43;12.70;;;8.27;;
23676;SDS011;31493;49.058;12.190;2022-12-07T11:55:18;11.45;;;8.27;;
23676;SDS011;31493;49.058;12.190;2022-12-07T11:57:50;13.88;;;8.93;;
23676;SDS011;31493;49.058;12.190;2022-12-07T12:00:23;14.23;;;8.25;;
23676;SDS011;31493;49.058;12.190;2022-12-07T12:02:51;13.80;;;8.43;;
23676;SDS011;31493;49.058;12.190;2022-12-07T12:05:25;12.25;;;8.15;;
23676;SDS011;31493;49.058;12.190;2022-12-07T12:07:57;13.98;;;7.65;;
23676;SDS011;31493;49.058;12.190;2022-12-07T12:10:35;13.07;;;8.82;;
23676;SDS011;31493;49.058;12.190;2022-12-07T12:13:15;13.93;;;8.35;;
23676;SDS011;31493;49.058;12.190;2022-12-07T12:15:59;13.85;;;9.15;;
23676;SDS011;31493;49.058;12.190;2022-12-07T12:18:49;13.10;;;7.88;;
23676;SDS011;31493;49.058;12.190;2022-12-07T12:21:29;12.70;;;8.80;;
23676;SDS011;31493;49.058;12.190;2022-12-07T12:23:59;14.07;;;8.48;;
23676;SDS011;31493;49.058;12.190;2022-12-07T12:26:30;14.23;;;9.25;;
23676;SDS011;31493;49.058;12.190;2022-12-07T12:29:02;13.10;;;8.60;;
23676;SDS011;31493;49.058;12.190;2022-12-07T12:31:33;13.70;;;8.85;;
23676;SDS011;31493;49.058;12.190;2022-12-07T12:34:03;13.23;;;8.25;;
23676;SDS011;31493;49.058;12.190;2022-12-07T12:36:51;12.73;;;8.43;;
23676;SDS011;31493;49.058;12.190;2022-12-07T12:39:19;15.68;;;9.07;;
23676;SDS011;31493;49.058;12.190;2022-12-07T12:41:54;13.10;;;8.85;;
23676;SDS011;31493;49.058;12.190;2022-12-07T12:44:40;14.40;;;9.35;;
23676;SDS011;31493;49.058;12.190;2022-12-07T12:50:17;11.63;;;7.65;;
23676;SDS011;31493;49.058;12.190;2022-12-07T12:52:57;14.55;;;7.40;;
23676;SDS011;31493;49.058;12.190;2022-12-07T12:58:40;11.55;;;7.40;;
23676;SDS011;31493;49.058;12.190;2022-12-07T13:04:14;12.95;;;8.25;;
23676;SDS011;31493;49.058;12.190;2022-12-07T13:06:48;12.35;;;7.93;;
23676;SDS011;31493;49.058;12.190;2022-12-07T13:09:18;12.63;;;8.05;;
23676;SDS011;31493;49.058;12.190;2022-12-07T13:11:48;13.02;;;7.75;;
23676;SDS011;31493;49.058;12.190;2022-12-07T13:14:38;11.82;;;8.60;;
23676;SDS011;31493;49.058;12.190;2022-12-07T13:20:43;17.55;;;9.07;;
23676;SDS011;31493;49.058;12.190;2022-12-07T13:23:16;12.82;;;8.50;;
23676;SDS011;31493;49.058;12.190;2022-12-07T13:25:51;16.00;;;9.13;;
23676;SDS011;31493;49.058;12.190;2022-12-07T13:28:22;14.25;;;8.60;;
23676;SDS011;31493;49.058;12.190;2022-12-07T13:30:58;15.63;;;8.70;;
23676;SDS011;31493;49.058;12.190;2022-12-07T13:33:30;14.75;;;8.63;;
23676;SDS011;31493;49.058;12.190;2022-12-07T13:36:01;16.83;;;9.75;;
23676;SDS011;31493;49.058;12.190;2022-12-07T13:38:30;17.60;;;9.55;;
23676;SDS011;31493;49.058;12.190;2022-12-07T13:41:01;15.60;;;9.45;;
23676;SDS011;31493;49.058;12.190;2022-12-07T13:43:30;12.88;;;8.80;;
23676;SDS011;31493;49.058;12.190;2022-12-07T13:45:58;15.88;;;9.05;;
23676;SDS011;31493;49.058;12.190;2022-12-07T13:48:28;13.85;;;9.05;;
23676;SDS011;31493;49.058;12.190;2022-12-07T13:50:58;15.07;;;8.88;;
23676;SDS011;31493;49.058;12.190;2022-12-07T13:53:27;15.80;;;9.07;;
23676;SDS011;31493;49.058;12.190;2022-12-07T13:55:56;18.92;;;9.77;;
23676;SDS011;31493;49.058;12.190;2022-12-07T13:58:24;13.50;;;9.57;;
23676;SDS011;31493;49.058;12.190;2022-12-07T14:00:51;13.38;;;8.88;;
23676;SDS011;31493;49.058;12.190;2022-12-07T14:03:30;14.40;;;8.65;;
23676;SDS011;31493;49.058;12.190;2022-12-07T14:06:06;12.73;;;9.05;;
23676;SDS011;31493;49.058;12.190;2022-12-07T14:08:41;12.45;;;8.60;;
23676;SDS011;31493;49.058;12.190;2022-12-07T14:11:09;13.18;;;8.88;;
23676;SDS011;31493;49.058;12.190;2022-12-07T14:13:43;14.00;;;8.68;;
23676;SDS011;31493;49.058;12.190;2022-12-07T14:16:18;13.93;;;9.25;;
23676;SDS011;31493;49.058;12.190;2022-12-07T14:18:52;15.07;;;8.98;;
23676;SDS011;31493;49.058;12.190;2022-12-07T14:21:19;14.25;;;9.52;;
23676;SDS011;31493;49.058;12.190;2022-12-07T14:26:37;13.35;;;9.23;;
23676;SDS011;31493;49.058;12.190;2022-12-07T14:31:56;14.65;;;8.93;;
23676;SDS011;31493;49.058;12.190;2022-12-07T14:36:52;15.33;;;8.77;;
23676;SDS011;31493;49.058;12.190;2022-12-07T14:39:19;15.48;;;8.32;;
23676;SDS011;31493;49.058;12.190;2022-12-07T14:41:47;14.25;;;9.13;;
23676;SDS011;31493;49.058;12.190;2022-12-07T14:44:17;15.13;;;8.88;;
23676;SDS011;31493;49.058;12.190;2022-12-07T14:46:46;13.88;;;8.75;;
23676;SDS011;31493;49.058;12.190;2022-12-07T14:49:13;12.55;;;8.82;;
23676;SDS011;31493;49.058;12.190;2022-12-07T14:51:42;16.30;;;8.60;;
23676;SDS011;31493;49.058;12.190;2022-12-07T14:54:12;13.40;;;8.68;;
23676;SDS011;31493;49.058;12.190;2022-12-07T14:56:42;15.10;;;9.13;;
23676;SDS011;31493;49.058;12.190;2022-12-07T14:59:11;14.73;;;8.55;;
23676;SDS011;31493;49.058;12.190;2022-12-07T15:01:38;16.70;;;9.25;;